Ardsley On Hudson, New York
Current Conditions -  °F | °C
As of 11:56 AM on Thursday 30 Oct 2014 (Local Time) from KHPN Reporting Station
Scattered Clouds Scattered Clouds  
Wind Chill: 54°   Ceiling: Unl
Heat Index: 54°   Visibility: 10mi
Dew Point: 41°   Wind: 8mph
Humidity: 62%   Direction: 340°NNW
Pressure: 29.98"   Gusts: NA
Location:  41.02°N, 73.87°W
Report Text: KHPN 301556Z 34007KT 10SM SCT035 SCT100 12/05 A2998 RMK AO2 SLP151 T01220050
Loading
Personal Weather Stations






























Interactive Weather Map
Tropical Storm Tracking
New forecast layout! Learn more

10-Day Weather Forecast

Advertisements
Track Severe Weather on mobile